Time;durP1;ratioP1;P1;durP2;ratioP2;P2;SDS_P1;SDS_P2;PMS_P1;PMS_P2;Temp;Humidity;BMP_temperature;BMP_pressure;BME280_temperature;BME280_humidity;BME280_pressure;Samples;Min_cycle;Max_cycle;Signal;HPM_P1;HPM_P2
2022/05/22 00:00:07;;;;;;;9.63;3.95;;;;;;;20.91;49.49;93723.34;5126569;28;20027;-72
2022/05/22 00:02:33;;;;;;;6.90;3.17;;;;;;;20.90;49.56;93721.78;5126468;28;20093;-72
2022/05/22 00:04:58;;;;;;;10.43;3.22;;;;;;;20.86;49.28;93718.28;5126530;28;20015;-72
2022/05/22 00:07:24;;;;;;;8.18;3.20;;;;;;;20.88;49.10;93729.53;5126468;28;20321;-72
2022/05/22 00:09:49;;;;;;;7.13;3.03;;;;;;;20.89;49.27;93719.47;5126671;28;20026;-72
2022/05/22 00:12:15;;;;;;;12.23;3.08;;;;;;;20.80;49.31;93719.81;5126080;28;20313;-72
2022/05/22 00:14:41;;;;;;;4.43;2.53;;;;;;;20.78;49.18;93716.72;5126182;28;20020;-71
2022/05/22 00:17:08;;;;;;;7.30;3.42;;;;;;;20.83;48.97;93710.94;5126438;28;20015;-72
2022/05/22 00:19:36;;;;;;;9.27;3.45;;;;;;;20.79;49.22;93712.88;5126410;28;20015;-71
2022/05/22 00:22:03;;;;;;;11.25;3.17;;;;;;;20.77;49.09;93707.81;5126203;28;20022;-71
2022/05/22 00:24:30;;;;;;;12.32;4.13;;;;;;;20.76;49.15;93700.06;5126296;28;20048;-72
2022/05/22 00:26:57;;;;;;;7.15;2.58;;;;;;;20.81;49.18;93699.72;5126140;28;20043;-72
2022/05/22 00:29:22;;;;;;;11.13;3.70;;;;;;;20.79;48.90;93707.44;5125617;28;20027;-72
2022/05/22 00:31:48;;;;;;;4.57;2.60;;;;;;;20.77;49.07;93701.63;5125459;28;20054;-72
2022/05/22 00:34:14;;;;;;;7.07;3.08;;;;;;;20.75;49.41;93698.53;5125955;28;20027;-71
2022/05/22 00:36:40;;;;;;;7.30;2.50;;;;;;;20.75;48.99;93693.13;5125921;28;20038;-71
2022/05/22 00:39:06;;;;;;;7.25;3.05;;;;;;;20.72;49.49;93699.28;5125777;28;20032;-71
2022/05/22 00:41:33;;;;;;;7.90;2.97;;;;;;;20.71;49.41;93703.16;5125817;28;20098;-71
2022/05/22 00:44:00;;;;;;;10.75;2.80;;;;;;;20.70;49.43;93696.97;5125702;28;20305;-71
2022/05/22 00:46:27;;;;;;;8.90;3.53;;;;;;;20.71;49.41;93697.75;5125762;28;20072;-71
2022/05/22 00:49:08;;;;;;;7.60;2.72;;;;;;;20.67;49.51;93705.09;5125334;28;20055;-72
2022/05/22 00:51:42;;;;;;;5.80;2.75;;;;;;;20.60;49.84;93701.19;5107456;28;20318;-71
2022/05/22 00:54:24;;;;;;;9.13;3.00;;;;;;;20.59;50.01;93693.44;5125075;28;20054;-71
2022/05/22 00:57:00;;;;;;;6.13;3.13;;;;;;;20.51;49.70;93695.31;5125634;28;20222;-71
2022/05/22 00:59:34;;;;;;;10.75;3.15;;;;;;;20.51;49.80;93694.53;5125641;28;20231;-71
2022/05/22 01:02:02;;;;;;;6.53;2.75;;;;;;;20.45;49.99;93694.13;5125449;28;20329;-71
2022/05/22 01:04:30;;;;;;;7.40;2.58;;;;;;;20.45;49.70;93694.13;5125282;28;20333;-71
2022/05/22 01:06:56;;;;;;;4.18;2.28;;;;;;;20.38;49.82;93686.75;5125278;28;20256;-71
2022/05/22 01:09:21;;;;;;;7.18;2.80;;;;;;;20.41;49.26;93696.81;5107134;28;20032;-72
2022/05/22 01:11:52;;;;;;;3.80;2.50;;;;;;;20.41;48.13;93693.31;5125061;28;20023;-71
2022/05/22 01:14:22;;;;;;;6.00;2.67;;;;;;;20.39;47.78;93687.50;5125079;28;20060;-71
2022/05/22 01:16:50;;;;;;;4.85;2.47;;;;;;;20.41;47.65;93693.31;5125304;28;20027;-71
2022/05/22 01:19:18;;;;;;;6.90;2.78;;;;;;;20.33;46.66;93683.63;5125052;28;20038;-71
2022/05/22 01:21:50;;;;;;;9.43;2.70;;;;;;;20.36;46.45;93685.56;5124926;28;20279;-71
2022/05/22 01:24:15;;;;;;;5.80;2.33;;;;;;;20.37;46.45;93689.81;5125166;28;20249;-71
2022/05/22 01:26:41;;;;;;;8.88;2.95;;;;;;;20.38;46.14;93686.75;5125009;28;20039;-72
2022/05/22 01:29:06;;;;;;;4.75;2.92;;;;;;;20.36;44.87;93697.19;5124816;28;20064;-71
2022/05/22 01:31:32;;;;;;;6.47;2.35;;;;;;;20.39;43.92;93685.59;5124694;28;20015;-71
2022/05/22 01:33:57;;;;;;;11.63;2.92;;;;;;;20.39;43.04;93688.31;5124573;28;20024;-71
2022/05/22 01:36:23;;;;;;;6.80;2.03;;;;;;;20.40;42.35;93686.38;5125027;28;20016;-71
2022/05/22 01:38:48;;;;;;;3.63;2.03;;;;;;;20.44;41.02;93685.22;5124844;28;20095;-71
2022/05/22 01:41:14;;;;;;;5.95;1.92;;;;;;;20.46;40.47;93682.16;5124389;28;20024;-71
2022/05/22 01:43:39;;;;;;;4.40;2.05;;;;;;;20.48;39.66;93692.59;5124766;28;20036;-71
2022/05/22 01:46:05;;;;;;;7.53;2.20;;;;;;;20.52;39.26;93690.69;5124581;28;20024;-71
2022/05/22 01:48:30;;;;;;;11.23;3.25;;;;;;;20.51;39.29;93681.78;5124373;28;20036;-71
2022/05/22 01:50:56;;;;;;;5.30;2.35;;;;;;;20.53;39.58;93690.28;5106269;28;20199;-72
2022/05/22 01:53:22;;;;;;;4.28;1.98;;;;;;;20.45;38.78;93686.00;5124605;28;20069;-72
2022/05/22 01:55:50;;;;;;;4.93;2.13;;;;;;;20.47;39.51;93688.31;5124540;28;20309;-72
2022/05/22 01:58:16;;;;;;;4.15;1.60;;;;;;;20.46;38.75;93692.97;5124315;28;20039;-72
2022/05/22 02:00:41;;;;;;;3.47;1.70;;;;;;;20.44;37.84;93690.63;5124264;28;20016;-72
2022/05/22 02:03:07;;;;;;;3.90;1.80;;;;;;;20.45;37.38;93686.00;5124231;28;20015;-71
2022/05/22 02:05:36;;;;;;;5.55;1.90;;;;;;;20.42;36.54;93684.06;5124223;28;20015;-72
2022/05/22 02:08:22;;;;;;;4.05;1.95;;;;;;;20.44;35.79;93695.28;5124156;28;20015;-71
2022/05/22 02:10:51;;;;;;;6.47;2.03;;;;;;;20.37;36.01;93695.22;5124080;28;20030;-72
2022/05/22 02:13:22;;;;;;;4.25;1.70;;;;;;;20.39;35.71;93693.72;5123850;28;20019;-72
2022/05/22 02:15:49;;;;;;;4.03;1.70;;;;;;;20.40;35.39;93697.97;5124072;28;20029;-71
2022/05/22 02:18:15;;;;;;;4.53;1.90;;;;;;;20.34;33.97;93690.59;5123958;28;20064;-71
2022/05/22 02:20:40;;;;;;;2.78;1.40;;;;;;;20.38;33.77;93697.56;5123852;28;20028;-71
2022/05/22 02:23:06;;;;;;;6.47;1.73;;;;;;;20.40;32.97;93702.63;5123945;28;20016;-71
2022/05/22 02:25:34;;;;;;;6.93;1.75;;;;;;;20.34;33.36;93693.31;5123859;28;20320;-71
2022/05/22 02:28:01;;;;;;;7.05;1.60;;;;;;;20.39;32.58;93701.84;5123727;28;20024;-71
2022/05/22 02:30:29;;;;;;;6.55;1.55;;;;;;;20.31;32.23;93697.53;5123879;28;20085;-71
2022/05/22 02:32:55;;;;;;;3.08;1.42;;;;;;;20.36;32.01;93701.81;5123898;28;20024;-71
2022/05/22 02:35:21;;;;;;;7.70;1.23;;;;;;;20.35;31.77;93702.97;5123766;28;20092;-71
2022/05/22 02:37:50;;;;;;;2.47;1.30;;;;;;;20.33;31.71;93708.75;5123669;28;20035;-71
2022/05/22 02:40:18;;;;;;;2.20;1.50;;;;;;;20.35;31.86;93714.59;5123654;28;20038;-71
2022/05/22 02:42:47;;;;;;;2.88;1.45;;;;;;;20.31;32.35;93715.69;5123572;28;20020;-72
2022/05/22 02:45:15;;;;;;;2.95;1.02;;;;;;;20.31;32.36;93713.00;5123422;28;20027;-71
2022/05/22 02:47:40;;;;;;;5.55;2.15;;;;;;;20.29;31.51;93704.47;5123420;28;20055;-72
2022/05/22 02:50:07;;;;;;;2.60;1.50;;;;;;;20.26;31.52;93707.94;5123629;28;20255;-71
2022/05/22 02:52:33;;;;;;;2.83;1.50;;;;;;;20.27;30.97;93712.19;5123147;28;20077;-72
2022/05/22 02:54:58;;;;;;;2.35;1.27;;;;;;;20.22;31.67;93716.81;5123128;28;20036;-71
2022/05/22 02:57:25;;;;;;;3.72;1.20;;;;;;;20.26;30.02;93710.66;5123423;28;20026;-71
2022/05/22 02:59:52;;;;;;;2.58;1.20;;;;;;;20.27;31.01;93715.66;5123370;28;20023;-71
2022/05/22 03:02:18;;;;;;;4.72;1.25;;;;;;;20.30;30.71;93706.03;5123323;28;20382;-71
2022/05/22 03:04:43;;;;;;;4.07;1.27;;;;;;;20.31;28.88;93727.28;5123326;28;20043;-71
2022/05/22 03:07:11;;;;;;;4.57;1.52;;;;;;;20.29;29.32;93720.72;5123128;28;20027;-71
2022/05/22 03:09:39;;;;;;;4.60;1.35;;;;;;;20.27;29.56;93723.03;5123287;28;20230;-71
2022/05/22 03:12:17;;;;;;;5.80;1.23;;;;;;;20.30;29.76;93733.09;5123469;28;20031;-71
2022/05/22 03:14:50;;;;;;;2.55;1.10;;;;;;;20.29;28.39;93736.94;5123339;28;20028;-71
2022/05/22 03:17:16;;;;;;;6.50;1.20;;;;;;;20.27;28.87;93733.84;5123235;28;20030;-71
2022/05/22 03:19:42;;;;;;;2.63;0.90;;;;;;;20.24;26.06;93722.63;5123036;28;20094;-71
2022/05/22 03:22:09;;;;;;;3.10;1.02;;;;;;;20.27;26.77;93721.06;5123201;28;20016;-71
2022/05/22 03:24:35;;;;;;;1.95;0.80;;;;;;;20.28;27.02;93738.13;5123260;28;20024;-71
2022/05/22 03:27:26;;;;;;;2.45;0.90;;;;;;;20.33;27.36;93732.34;5123054;28;20016;-71
2022/05/22 03:29:51;;;;;;;2.55;0.90;;;;;;;20.33;24.92;93733.09;5116123;28;20043;-71
2022/05/22 03:32:17;;;;;;;2.28;0.80;;;;;;;20.38;25.35;93737.41;5122970;28;20035;-71
2022/05/22 03:34:43;;;;;;;6.05;1.00;;;;;;;20.38;25.42;93734.69;5123067;28;20027;-71
2022/05/22 03:37:09;;;;;;;1.63;0.85;;;;;;;20.40;25.61;93733.16;5123105;28;20019;-71
2022/05/22 03:39:35;;;;;;;5.40;0.90;;;;;;;20.40;25.75;93735.09;5123062;28;20047;-71
2022/05/22 03:42:01;;;;;;;4.75;0.63;;;;;;;20.41;25.86;93734.72;5122965;28;20031;-71
2022/05/22 03:44:27;;;;;;;1.48;0.60;;;;;;;20.42;25.40;93738.19;5123227;28;20026;-71
2022/05/22 03:46:52;;;;;;;2.92;1.10;;;;;;;20.45;26.09;93740.13;5122920;28;20069;-71
2022/05/22 03:49:18;;;;;;;3.17;0.85;;;;;;;20.43;25.97;93740.53;5122918;28;20023;-71
2022/05/22 03:51:43;;;;;;;2.45;0.70;;;;;;;20.51;26.33;93745.97;5122912;28;20020;-71
2022/05/22 03:54:10;;;;;;;3.00;0.80;;;;;;;20.54;26.17;93747.94;5122530;28;20128;-71
2022/05/22 03:56:38;;;;;;;1.45;0.80;;;;;;;20.55;26.78;93749.47;5123002;28;20042;-71
2022/05/22 03:59:04;;;;;;;3.80;0.80;;;;;;;20.55;26.35;93744.81;5122809;28;20214;-71
2022/05/22 04:01:29;;;;;;;4.88;0.98;;;;;;;20.56;26.52;93742.91;5122804;28;20027;-72
2022/05/22 04:03:56;;;;;;;3.72;0.70;;;;;;;20.60;26.92;93743.75;5122825;28;20064;-71
2022/05/22 04:06:21;;;;;;;2.63;0.75;;;;;;;20.62;27.56;93742.19;5125153;28;20024;-72
2022/05/22 04:08:48;;;;;;;3.28;0.90;;;;;;;20.61;27.75;93737.94;5126605;28;20233;-71
2022/05/22 04:11:16;;;;;;;1.08;0.60;;;;;;;20.59;26.99;93742.19;5126464;28;20026;-71
2022/05/22 04:13:42;;;;;;;1.52;1.20;;;;;;;20.57;28.28;93747.16;5126391;28;20221;-71
2022/05/22 04:16:08;;;;;;;6.80;1.08;;;;;;;20.56;28.06;93745.63;5126427;28;20016;-71
2022/05/22 04:18:34;;;;;;;3.00;0.90;;;;;;;20.51;28.59;93749.44;5126325;28;20090;-71
2022/05/22 04:20:59;;;;;;;2.22;0.63;;;;;;;20.56;28.60;93740.97;5126349;28;20030;-71
2022/05/22 04:26:10;;;;;;;6.32;0.68;;;;;;;20.63;29.06;93749.16;5126183;28;20039;-71
2022/05/22 04:28:36;;;;;;;4.47;0.82;;;;;;;20.56;29.80;93748.34;5126074;28;20044;-71
2022/05/22 04:31:03;;;;;;;5.57;1.73;;;;;;;20.52;29.75;93753.72;5126043;28;20024;-71
2022/05/22 04:33:29;;;;;;;3.47;0.77;;;;;;;20.51;30.10;93746.75;5126230;28;20094;-71
2022/05/22 04:35:55;;;;;;;1.30;0.80;;;;;;;20.38;30.11;93757.13;5126198;28;20030;-71
2022/05/22 04:38:20;;;;;;;2.42;1.10;;;;;;;20.39;31.02;93752.47;5125796;28;20047;-71
2022/05/22 04:40:57;;;;;;;2.25;1.15;;;;;;;20.40;31.27;93754.03;5125910;28;20094;-71
2022/05/22 04:43:23;;;;;;;3.03;1.00;;;;;;;20.36;32.85;93759.44;5125878;28;20023;-72
2022/05/22 04:45:50;;;;;;;3.92;1.40;;;;;;;20.33;31.37;93756.69;5125881;28;20475;-71
2022/05/22 04:48:16;;;;;;;3.60;1.10;;;;;;;20.28;31.57;93767.88;5125366;28;20031;-71
2022/05/22 04:50:45;;;;;;;6.53;1.00;;;;;;;20.23;31.92;93764.38;5125738;28;20251;-71
2022/05/22 04:53:10;;;;;;;2.20;1.00;;;;;;;20.22;33.13;93760.09;5125565;28;20026;-71
2022/05/22 04:55:37;;;;;;;5.80;1.00;;;;;;;20.20;32.89;93759.69;5125335;28;20042;-71
2022/05/22 04:58:02;;;;;;;3.33;0.73;;;;;;;20.16;32.82;93761.59;5125513;28;20218;-71
2022/05/22 05:00:27;;;;;;;4.85;0.70;;;;;;;20.19;32.87;93754.66;5125657;28;20060;-71
2022/05/22 05:02:53;;;;;;;5.53;0.80;;;;;;;20.21;32.24;93758.56;5125418;28;20026;-71
2022/05/22 05:05:19;;;;;;;1.92;0.70;;;;;;;20.22;32.11;93764.75;5125406;28;20034;-71
2022/05/22 05:07:44;;;;;;;3.35;0.80;;;;;;;20.24;32.90;93757.03;5125492;28;20019;-72
2022/05/22 05:10:11;;;;;;;1.83;1.02;;;;;;;20.26;32.86;93762.06;5125200;28;20218;-72
2022/05/22 05:12:40;;;;;;;1.63;0.88;;;;;;;20.35;32.41;93765.22;5125162;28;20023;-73
2022/05/22 05:15:08;;;;;;;1.65;0.95;;;;;;;20.38;32.58;93753.66;5125547;28;20043;-74
2022/05/22 05:17:33;;;;;;;12.15;1.23;;;;;;;20.47;32.93;93759.47;5124912;28;20027;-72
2022/05/22 05:19:59;;;;;;;10.25;0.93;;;;;;;20.54;33.44;93754.13;5125304;28;20034;-72
2022/05/22 05:22:25;;;;;;;2.17;1.27;;;;;;;20.61;31.80;93759.59;5125144;28;20016;-73
2022/05/22 05:24:51;;;;;;;2.00;0.80;;;;;;;20.68;32.72;93758.06;5125025;28;20319;-73
2022/05/22 05:27:16;;;;;;;2.10;1.25;;;;;;;20.74;32.60;93764.69;5125032;28;20045;-73
2022/05/22 05:29:42;;;;;;;4.28;1.02;;;;;;;20.77;33.92;93766.63;5125011;28;20229;-72
2022/05/22 05:32:08;;;;;;;2.88;0.98;;;;;;;20.84;34.32;93762.03;5124881;28;20055;-73
2022/05/22 05:34:33;;;;;;;2.13;0.90;;;;;;;20.92;33.63;93762.81;5125019;28;20071;-73
2022/05/22 05:36:59;;;;;;;3.55;1.00;;;;;;;20.92;31.90;93760.13;5125038;28;20090;-72
2022/05/22 05:39:27;;;;;;;2.72;1.10;;;;;;;20.90;30.74;93764.38;5124596;28;20106;-72
2022/05/22 05:41:54;;;;;;;3.33;1.10;;;;;;;20.97;32.64;93767.13;5124670;28;20095;-73
2022/05/22 05:44:20;;;;;;;2.13;1.02;;;;;;;21.00;33.35;93769.06;5124671;28;20031;-73
2022/05/22 05:46:46;;;;;;;3.47;0.90;;;;;;;21.03;33.96;93758.22;5124598;28;20027;-72
2022/05/22 05:49:12;;;;;;;7.05;0.90;;;;;;;21.11;32.18;93766.41;5124283;28;20043;-72
2022/05/22 05:51:39;;;;;;;3.88;1.05;;;;;;;21.19;32.69;93765.25;5124393;28;20047;-72
2022/05/22 05:54:04;;;;;;;2.33;0.70;;;;;;;21.12;31.07;93767.94;5124203;28;20049;-73
2022/05/22 05:56:30;;;;;;;3.45;0.73;;;;;;;21.14;33.32;93768.34;5124556;28;20027;-72
2022/05/22 05:58:56;;;;;;;3.63;1.23;;;;;;;21.10;33.30;93768.31;5124386;28;20034;-72
2022/05/22 06:01:24;;;;;;;3.65;1.45;;;;;;;21.10;32.93;93773.72;5124358;28;20076;-72
2022/05/22 06:03:51;;;;;;;3.08;1.40;;;;;;;21.11;33.79;93777.25;5124153;28;20088;-72
2022/05/22 06:06:17;;;;;;;6.45;1.02;;;;;;;21.03;33.22;93779.91;5124248;28;20019;-72
2022/05/22 06:08:43;;;;;;;3.03;1.02;;;;;;;21.06;33.04;93786.50;5123943;28;20046;-72
2022/05/22 06:11:09;;;;;;;5.13;1.20;;;;;;;20.94;32.42;93784.88;5124117;28;20317;-72
2022/05/22 06:13:39;;;;;;;2.28;1.08;;;;;;;20.88;33.77;93791.81;5123943;28;20035;-72
2022/05/22 06:16:05;;;;;;;4.70;1.20;;;;;;;20.76;34.20;93782.13;5124028;28;20023;-76
2022/05/22 06:18:31;;;;;;;1.88;1.00;;;;;;;20.80;35.21;93776.69;5124104;28;20015;-76
2022/05/22 06:20:56;;;;;;;28.30;1.63;;;;;;;20.78;34.13;93776.31;5123959;28;20022;-76
2022/05/22 06:23:22;;;;;;;5.05;0.90;;;;;;;20.73;35.27;93776.69;5123646;28;20049;-82
2022/05/22 06:25:47;;;;;;;3.03;0.90;;;;;;;20.64;33.89;93779.75;5123879;28;20015;-76
2022/05/22 06:28:17;;;;;;;7.72;1.08;;;;;;;20.56;34.79;93787.00;5122916;28;20016;-76
2022/05/22 06:30:43;;;;;;;3.25;1.13;;;;;;;20.53;34.49;93779.63;5123705;28;20026;-76
2022/05/22 06:33:10;;;;;;;8.88;1.30;;;;;;;20.52;34.45;93771.91;5123517;28;20019;-76
2022/05/22 06:35:40;;;;;;;4.10;1.20;;;;;;;20.46;34.13;93773.41;5123776;28;20038;-76
2022/05/22 06:38:06;;;;;;;4.70;0.90;;;;;;;20.47;34.60;93773.00;5123786;28;20027;-76
2022/05/22 06:40:32;;;;;;;5.32;1.10;;;;;;;20.53;34.16;93771.50;5123574;28;20024;-76
2022/05/22 06:43:01;;;;;;;1.73;0.90;;;;;;;20.56;35.07;93773.47;5123766;28;20025;-76
2022/05/22 06:45:28;;;;;;;5.10;1.38;;;;;;;20.65;35.68;93781.28;5123760;28;20318;-77
2022/05/22 06:47:53;;;;;;;4.32;1.05;;;;;;;20.72;34.59;93770.50;5123572;28;20254;-77
2022/05/22 06:50:22;;;;;;;4.05;1.17;;;;;;;20.78;35.27;93779.81;5123624;28;20090;-78
2022/05/22 06:52:47;;;;;;;6.32;1.08;;;;;;;20.93;35.26;93763.63;5123376;28;20090;-76
2022/05/22 06:55:14;;;;;;;3.08;1.45;;;;;;;21.04;35.01;93767.94;5123585;28;20047;-76
2022/05/22 06:57:40;;;;;;;2.97;1.13;;;;;;;21.11;35.21;93764.47;5123482;28;20019;-76
2022/05/22 07:00:09;;;;;;;2.30;1.10;;;;;;;21.11;33.81;93763.69;5123406;28;20043;-76
2022/05/22 07:02:36;;;;;;;1.73;1.00;;;;;;;21.16;35.87;93772.19;5123605;28;20217;-77
2022/05/22 07:05:03;;;;;;;3.42;1.30;;;;;;;21.24;35.38;93773.78;5123452;28;20023;-76
2022/05/22 07:07:28;;;;;;;3.55;1.02;;;;;;;21.27;35.70;93780.38;5123455;28;20029;-77
2022/05/22 07:09:54;;;;;;;3.13;1.30;;;;;;;21.39;36.22;93774.63;5123027;28;20047;-76
2022/05/22 07:12:20;;;;;;;8.20;1.55;;;;;;;21.46;33.43;93754.91;5123243;28;20198;-76
2022/05/22 07:14:48;;;;;;;5.20;1.85;;;;;;;21.55;34.33;93743.66;5123320;28;20024;-76
2022/05/22 07:17:15;;;;;;;2.90;1.38;;;;;;;21.57;33.32;93754.91;5123243;28;20024;-76
2022/05/22 07:19:42;;;;;;;1.77;1.00;;;;;;;21.63;33.35;93747.94;5123199;28;20091;-76
2022/05/22 07:22:07;;;;;;;5.82;1.05;;;;;;;21.69;35.03;93754.53;5123031;28;20034;-76
2022/05/22 07:24:34;;;;;;;3.58;1.05;;;;;;;21.74;33.25;93748.72;5123364;28;20251;-76
2022/05/22 07:26:59;;;;;;;3.22;1.13;;;;;;;21.84;30.94;93750.69;5123198;28;20109;-77
2022/05/22 07:29:25;;;;;;;3.42;0.93;;;;;;;21.92;31.17;93756.09;5123267;28;20024;-77
2022/05/22 07:31:50;;;;;;;6.22;1.55;;;;;;;21.98;32.99;93749.91;5123058;28;20027;-77
2022/05/22 07:34:16;;;;;;;7.30;1.35;;;;;;;22.02;32.76;93771.59;5123032;28;20027;-77
2022/05/22 07:36:41;;;;;;;4.47;1.10;;;;;;;21.93;31.24;93765.78;5123019;28;20028;-77
2022/05/22 07:39:07;;;;;;;3.35;1.30;;;;;;;21.94;31.88;93756.47;5123564;28;20051;-77
2022/05/22 07:41:32;;;;;;;3.88;1.10;;;;;;;21.96;32.01;93763.09;5127451;28;20038;-77
2022/05/22 07:43:59;;;;;;;1.92;1.00;;;;;;;21.97;33.13;93761.16;5109023;28;20055;-77
2022/05/22 07:46:25;;;;;;;4.60;1.73;;;;;;;21.87;33.37;93756.50;5126974;28;20027;-78
2022/05/22 07:48:51;;;;;;;4.78;1.30;;;;;;;21.91;34.37;93759.97;5126768;28;20246;-77
2022/05/22 07:51:17;;;;;;;2.78;1.17;;;;;;;21.91;33.74;93755.31;5127008;28;20368;-77
2022/05/22 07:53:43;;;;;;;7.60;1.30;;;;;;;21.96;33.56;93748.72;5126885;28;20027;-78
2022/05/22 07:56:08;;;;;;;3.00;1.23;;;;;;;22.00;33.53;93757.63;5127051;28;20024;-77
2022/05/22 07:58:35;;;;;;;5.60;1.23;;;;;;;21.96;33.29;93741.38;5126940;28;20023;-77
2022/05/22 08:01:01;;;;;;;6.28;1.25;;;;;;;21.90;32.30;93739.44;5126415;28;20079;-77
2022/05/22 08:03:27;;;;;;;2.13;1.00;;;;;;;21.78;33.59;93746.03;5126615;28;20099;-76
2022/05/22 08:05:55;;;;;;;7.55;1.50;;;;;;;21.81;35.27;93735.16;5126004;28;20337;-73
2022/05/22 08:08:21;;;;;;;7.88;1.83;;;;;;;21.72;35.61;93734.03;5126080;28;20095;-74
2022/05/22 08:10:46;;;;;;;3.95;1.30;;;;;;;21.66;37.27;93727.41;5126575;28;20193;-74
2022/05/22 08:13:13;;;;;;;6.93;1.50;;;;;;;21.58;37.20;93713.84;5126253;28;20024;-73
2022/05/22 08:15:40;;;;;;;14.52;1.55;;;;;;;21.54;37.90;93704.94;5108322;28;20431;-74
2022/05/22 08:18:10;;;;;;;5.75;1.80;;;;;;;21.57;38.53;93708.81;5126574;28;20094;-74
2022/05/22 08:20:38;;;;;;;7.10;1.75;;;;;;;21.57;38.05;93708.81;5126484;28;20030;-73
2022/05/22 08:23:07;;;;;;;6.70;1.70;;;;;;;21.54;38.92;93710.38;5126559;28;20016;-74
2022/05/22 08:25:33;;;;;;;3.15;1.50;;;;;;;21.35;39.09;93706.06;5126418;28;20099;-74
2022/05/22 08:27:59;;;;;;;3.05;1.38;;;;;;;21.28;40.10;93700.59;5126559;28;20061;-73
2022/05/22 08:30:28;;;;;;;7.68;1.70;;;;;;;21.34;39.10;93701.78;5107839;28;20085;-73
2022/05/22 08:32:54;;;;;;;7.53;1.70;;;;;;;21.43;38.63;93694.09;5125910;28;20035;-73
2022/05/22 08:35:28;;;;;;;2.40;1.38;;;;;;;21.47;38.41;93685.94;5126061;28;20019;-73
2022/05/22 08:37:54;;;;;;;3.28;1.10;;;;;;;21.44;38.42;93679.34;5125918;28;20102;-73
2022/05/22 08:40:22;;;;;;;4.38;1.58;;;;;;;21.61;39.27;93685.19;5107702;28;20069;-73
2022/05/22 08:43:23;;;;;;;3.30;1.38;;;;;;;21.72;38.17;93682.47;5125907;28;20314;-73
2022/05/22 08:45:57;;;;;;;4.40;1.63;;;;;;;21.59;37.69;93687.50;5122565;28;20027;-73
2022/05/22 08:48:39;;;;;;;4.05;1.60;;;;;;;21.44;37.25;93679.34;5125474;28;20046;-73
2022/05/22 08:51:11;;;;;;;3.92;1.10;;;;;;;21.35;38.54;93689.78;5124931;28;20028;-73
2022/05/22 08:53:52;;;;;;;9.38;2.85;;;;;;;21.30;38.08;93684.75;5125528;28;20023;-72
2022/05/22 08:59:14;;;;;;;4.75;1.52;;;;;;;21.29;38.47;93683.19;5125910;28;20022;-73
2022/05/22 09:01:45;;;;;;;6.20;1.75;;;;;;;21.25;39.83;93682.41;5125449;28;20233;-73
2022/05/22 09:04:22;;;;;;;7.37;1.90;;;;;;;21.15;39.66;93680.47;5125562;28;20039;-72
2022/05/22 09:07:04;;;;;;;11.95;2.42;;;;;;;21.00;39.68;93683.16;5125202;28;20362;-73
2022/05/22 09:09:32;;;;;;;6.13;1.75;;;;;;;20.85;40.24;93681.53;5125322;28;20019;-73
2022/05/22 09:12:10;;;;;;;5.85;1.60;;;;;;;20.66;41.71;93688.06;5125291;28;20043;-73
2022/05/22 09:14:47;;;;;;;5.30;2.33;;;;;;;20.58;42.71;93694.59;5125278;28;20027;-73
2022/05/22 09:17:27;;;;;;;4.32;1.77;;;;;;;20.56;43.39;93700.38;5125031;28;20143;-73
2022/05/22 09:20:19;;;;;;;8.32;1.30;;;;;;;20.42;41.36;93697.59;5125231;28;20042;-73
2022/05/22 09:23:25;;;;;;;11.45;1.25;;;;;;;20.42;40.63;93681.34;5125116;28;20020;-73
2022/05/22 09:26:09;;;;;;;12.50;1.63;;;;;;;20.41;40.01;93687.91;5112260;28;20077;-72
2022/05/22 09:28:46;;;;;;;3.08;1.10;;;;;;;20.42;39.16;93675.94;5125095;28;20023;-72
2022/05/22 09:31:27;;;;;;;5.47;1.17;;;;;;;20.43;38.68;93675.56;5124836;28;20027;-73
2022/05/22 09:33:59;;;;;;;5.47;1.08;;;;;;;20.45;37.48;93677.88;5124763;28;20103;-73
2022/05/22 09:36:59;;;;;;;4.25;1.33;;;;;;;20.54;37.73;93664.78;5124947;28;20048;-73
2022/05/22 09:39:32;;;;;;;2.17;1.08;;;;;;;20.69;37.42;93654.78;5124767;28;20031;-73
2022/05/22 09:42:27;;;;;;;3.55;0.90;;;;;;;20.80;36.98;93646.69;5124882;28;20019;-73
2022/05/22 09:45:04;;;;;;;5.53;1.10;;;;;;;20.94;36.37;93660.28;5124816;28;20020;-73
2022/05/22 09:47:39;;;;;;;2.42;1.27;;;;;;;21.07;35.84;93654.53;5124859;28;20126;-73
2022/05/22 09:50:33;;;;;;;2.38;0.93;;;;;;;21.10;35.97;93657.22;5124766;28;20023;-73
2022/05/22 09:53:04;;;;;;;2.72;0.85;;;;;;;21.06;37.69;93666.50;5124597;28;20031;-73
2022/05/22 09:55:42;;;;;;;1.83;0.90;;;;;;;20.96;37.30;93644.41;5124393;28;20034;-72
2022/05/22 09:58:23;;;;;;;3.85;0.98;;;;;;;20.78;38.26;93643.59;5124387;28;20019;-73
2022/05/22 10:00:56;;;;;;;3.95;0.90;;;;;;;20.84;38.44;93642.06;5124146;28;20023;-73
2022/05/22 10:03:59;;;;;;;4.50;1.00;;;;;;;21.03;39.64;93632.84;5123474;28;20020;-73
2022/05/22 10:06:32;;;;;;;2.58;1.15;;;;;;;21.22;38.36;93637.09;5124287;28;20028;-73
2022/05/22 10:09:26;;;;;;;1.90;1.00;;;;;;;21.24;37.51;93626.66;5124217;28;20020;-72
2022/05/22 10:12:16;;;;;;;1.95;1.05;;;;;;;21.30;37.89;93629.75;5123943;28;20019;-72
2022/05/22 10:15:01;;;;;;;3.50;1.08;;;;;;;21.58;38.66;93626.31;5124006;28;20031;-72
2022/05/22 10:17:53;;;;;;;1.95;1.15;;;;;;;21.90;37.74;93614.63;5124093;28;20020;-73
2022/05/22 10:20:22;;;;;;;3.22;1.23;;;;;;;22.06;36.88;93625.06;5124166;28;20020;-72
2022/05/22 10:23:10;;;;;;;3.63;1.40;;;;;;;22.13;37.47;93614.19;5123854;28;20029;-73
2022/05/22 10:25:41;;;;;;;3.65;1.08;;;;;;;22.29;38.06;93616.47;5124000;28;20058;-72
2022/05/22 10:28:16;;;;;;;4.15;1.17;;;;;;;22.42;37.06;93614.88;5124190;28;20077;-72
2022/05/22 10:30:49;;;;;;;3.58;1.05;;;;;;;22.31;35.81;93600.56;5105643;28;20290;-72
2022/05/22 10:33:26;;;;;;;4.10;1.23;;;;;;;22.41;36.20;93618.78;5123774;28;20034;-73
2022/05/22 10:35:57;;;;;;;1.60;1.00;;;;;;;22.49;36.35;93609.44;5123973;28;20060;-72
2022/05/22 10:38:25;;;;;;;2.90;1.10;;;;;;;22.43;35.45;93594.72;5123795;28;20019;-73
2022/05/22 10:43:44;;;;;;;2.72;1.33;;;;;;;22.43;37.30;93613.75;5123771;28;20209;-73
2022/05/22 10:46:10;;;;;;;5.57;1.33;;;;;;;22.41;36.18;93597.84;5123321;28;20114;-73
2022/05/22 10:48:48;;;;;;;1.77;1.15;;;;;;;22.30;37.39;93597.09;5123520;28;20110;-84
2022/05/22 10:51:24;;;;;;;4.47;2.17;;;;;;;22.49;36.43;93587.72;5123855;28;20305;-73
2022/05/22 10:53:55;;;;;;;2.90;1.20;;;;;;;22.71;36.09;93580.22;5123555;28;20029;-73
2022/05/22 10:56:30;;;;;;;3.88;1.17;;;;;;;22.91;36.75;93582.44;5123224;28;20064;-74
2022/05/22 10:58:57;;;;;;;3.15;1.38;;;;;;;23.09;37.29;93585.06;5121656;28;20022;-73
2022/05/22 11:01:28;;;;;;;4.03;1.85;;;;;;;23.17;34.88;93589.28;5122970;28;20047;-73
2022/05/22 11:04:03;;;;;;;3.50;2.20;;;;;;;23.26;35.34;93588.81;5123556;28;20027;-73
2022/05/22 11:06:29;;;;;;;4.90;1.30;;;;;;;23.34;34.77;93591.06;5122858;28;20033;-73
2022/05/22 11:08:55;;;;;;;6.47;2.10;;;;;;;23.26;34.11;93594.25;5122322;28;20698;-72
2022/05/22 11:11:27;;;;;;;2.67;1.20;;;;;;;23.27;34.51;93598.53;5122875;28;20015;-73
2022/05/22 11:14:04;;;;;;;3.80;1.35;;;;;;;23.33;34.87;93591.50;5121649;28;20020;-73
2022/05/22 11:16:29;;;;;;;5.30;1.10;;;;;;;23.37;35.31;93584.84;5125871;28;20020;-72
2022/05/22 11:19:11;;;;;;;8.18;2.10;;;;;;;23.47;34.74;93580.50;5126002;28;20028;-72
2022/05/22 11:21:51;;;;;;;3.95;1.38;;;;;;;23.50;34.79;93581.63;5126183;28;20031;-72
2022/05/22 11:24:50;;;;;;;5.60;1.30;;;;;;;23.53;35.21;93586.25;5126041;28;20090;-72
2022/05/22 11:27:32;;;;;;;2.42;1.23;;;;;;;23.53;35.96;93575.38;5126821;28;20076;-72
2022/05/22 11:30:15;;;;;;;6.30;1.42;;;;;;;23.30;36.67;93576.72;5127470;28;20027;-72
2022/05/22 11:33:00;;;;;;;5.22;1.70;;;;;;;23.38;36.96;93569.28;5127361;28;20257;-72
2022/05/22 11:36:11;;;;;;;6.03;1.52;;;;;;;23.36;37.53;93564.25;5127238;28;20322;-72
2022/05/22 11:39:09;;;;;;;4.18;1.60;;;;;;;23.53;36.62;93548.97;5064621;28;20315;-73
2022/05/22 11:41:37;;;;;;;6.97;1.20;;;;;;;23.64;37.66;93549.63;5064938;28;20040;-72
2022/05/22 11:44:14;;;;;;;5.00;1.88;;;;;;;23.74;36.61;93547.22;5108484;28;20146;-73
2022/05/22 11:47:07;;;;;;;5.38;2.15;;;;;;;23.62;35.92;93572.97;5126911;28;20035;-73
2022/05/22 11:49:57;;;;;;;2.75;1.13;;;;;;;23.32;35.62;93558.06;5086508;28;20028;-71
2022/05/22 11:52:54;;;;;;;2.35;1.27;;;;;;;23.05;35.62;93557.91;5086205;28;20028;-71
2022/05/22 11:55:49;;;;;;;1.98;1.25;;;;;;;22.66;36.35;93560.84;5086027;28;20028;-71